sensor_id;sensor_type;location;lat;lon;timestamp;P1;durP1;ratioP1;P2;durP2;ratioP2
62268;SDS011;56517;51.634;5.566;2022-10-19T00:03:58;9.20;;;6.45;;
62268;SDS011;56517;51.634;5.566;2022-10-19T00:09:00;11.52;;;6.78;;
62268;SDS011;56517;51.634;5.566;2022-10-19T00:14:03;9.93;;;6.63;;
62268;SDS011;56517;51.634;5.566;2022-10-19T00:19:05;6.82;;;5.85;;
62268;SDS011;56517;51.634;5.566;2022-10-19T00:24:05;7.88;;;6.50;;
62268;SDS011;56517;51.634;5.566;2022-10-19T00:29:08;9.23;;;7.15;;
62268;SDS011;56517;51.634;5.566;2022-10-19T00:34:09;8.25;;;6.50;;
62268;SDS011;56517;51.634;5.566;2022-10-19T00:39:11;7.53;;;6.63;;
62268;SDS011;56517;51.634;5.566;2022-10-19T00:49:33;6.97;;;6.20;;
62268;SDS011;56517;51.634;5.566;2022-10-19T00:54:35;9.95;;;7.03;;
62268;SDS011;56517;51.634;5.566;2022-10-19T00:59:36;14.82;;;6.57;;
62268;SDS011;56517;51.634;5.566;2022-10-19T01:04:39;8.60;;;6.90;;
62268;SDS011;56517;51.634;5.566;2022-10-19T01:09:41;8.85;;;7.20;;
62268;SDS011;56517;51.634;5.566;2022-10-19T01:14:44;10.25;;;7.07;;
62268;SDS011;56517;51.634;5.566;2022-10-19T01:19:59;9.82;;;6.97;;
62268;SDS011;56517;51.634;5.566;2022-10-19T01:25:09;9.15;;;6.70;;
62268;SDS011;56517;51.634;5.566;2022-10-19T01:30:17;11.18;;;7.50;;
62268;SDS011;56517;51.634;5.566;2022-10-19T01:35:21;16.45;;;8.48;;
62268;SDS011;56517;51.634;5.566;2022-10-19T01:40:27;13.75;;;7.57;;
62268;SDS011;56517;51.634;5.566;2022-10-19T01:45:31;12.70;;;7.95;;
62268;SDS011;56517;51.634;5.566;2022-10-19T01:50:37;9.50;;;7.47;;
62268;SDS011;56517;51.634;5.566;2022-10-19T01:55:40;12.73;;;8.00;;
62268;SDS011;56517;51.634;5.566;2022-10-19T02:00:43;9.68;;;7.95;;
62268;SDS011;56517;51.634;5.566;2022-10-19T02:05:45;10.00;;;7.40;;
62268;SDS011;56517;51.634;5.566;2022-10-19T02:10:46;13.48;;;8.02;;
62268;SDS011;56517;51.634;5.566;2022-10-19T02:15:50;12.00;;;8.55;;
62268;SDS011;56517;51.634;5.566;2022-10-19T02:20:51;15.80;;;8.82;;
62268;SDS011;56517;51.634;5.566;2022-10-19T02:25:52;14.80;;;9.05;;
62268;SDS011;56517;51.634;5.566;2022-10-19T02:30:54;15.45;;;8.52;;
62268;SDS011;56517;51.634;5.566;2022-10-19T02:35:55;11.80;;;8.65;;
62268;SDS011;56517;51.634;5.566;2022-10-19T02:40:59;15.25;;;8.43;;
62268;SDS011;56517;51.634;5.566;2022-10-19T02:46:01;12.20;;;7.80;;
62268;SDS011;56517;51.634;5.566;2022-10-19T02:51:03;12.07;;;8.40;;
62268;SDS011;56517;51.634;5.566;2022-10-19T02:56:04;15.15;;;7.50;;
62268;SDS011;56517;51.634;5.566;2022-10-19T03:01:06;13.40;;;8.55;;
62268;SDS011;56517;51.634;5.566;2022-10-19T03:06:08;12.27;;;7.88;;
62268;SDS011;56517;51.634;5.566;2022-10-19T03:11:09;13.10;;;8.27;;
62268;SDS011;56517;51.634;5.566;2022-10-19T03:16:14;13.80;;;9.07;;
62268;SDS011;56517;51.634;5.566;2022-10-19T03:21:14;13.05;;;8.60;;
62268;SDS011;56517;51.634;5.566;2022-10-19T03:26:15;18.65;;;8.82;;
62268;SDS011;56517;51.634;5.566;2022-10-19T03:31:18;11.60;;;8.98;;
62268;SDS011;56517;51.634;5.566;2022-10-19T03:36:20;17.75;;;9.48;;
62268;SDS011;56517;51.634;5.566;2022-10-19T03:41:21;15.13;;;8.18;;
62268;SDS011;56517;51.634;5.566;2022-10-19T03:46:24;13.63;;;9.00;;
62268;SDS011;56517;51.634;5.566;2022-10-19T03:51:25;10.75;;;8.65;;
62268;SDS011;56517;51.634;5.566;2022-10-19T03:56:26;22.50;;;9.60;;
62268;SDS011;56517;51.634;5.566;2022-10-19T04:01:29;11.93;;;8.20;;
62268;SDS011;56517;51.634;5.566;2022-10-19T04:06:30;15.70;;;8.35;;
62268;SDS011;56517;51.634;5.566;2022-10-19T04:11:31;13.80;;;9.00;;
62268;SDS011;56517;51.634;5.566;2022-10-19T04:16:33;16.42;;;9.98;;
62268;SDS011;56517;51.634;5.566;2022-10-19T04:21:36;14.57;;;8.43;;
62268;SDS011;56517;51.634;5.566;2022-10-19T04:26:38;14.63;;;8.68;;
62268;SDS011;56517;51.634;5.566;2022-10-19T04:31:40;15.40;;;8.95;;
62268;SDS011;56517;51.634;5.566;2022-10-19T04:36:41;12.88;;;9.23;;
62268;SDS011;56517;51.634;5.566;2022-10-19T04:41:42;20.48;;;9.98;;
62268;SDS011;56517;51.634;5.566;2022-10-19T04:46:43;14.52;;;9.18;;
62268;SDS011;56517;51.634;5.566;2022-10-19T04:51:44;20.08;;;9.98;;
62268;SDS011;56517;51.634;5.566;2022-10-19T04:56:45;11.18;;;8.40;;
62268;SDS011;56517;51.634;5.566;2022-10-19T05:01:47;13.80;;;8.27;;
62268;SDS011;56517;51.634;5.566;2022-10-19T05:06:47;13.80;;;9.23;;
62268;SDS011;56517;51.634;5.566;2022-10-19T05:11:48;11.65;;;8.32;;
62268;SDS011;56517;51.634;5.566;2022-10-19T05:16:50;17.27;;;9.23;;
62268;SDS011;56517;51.634;5.566;2022-10-19T05:21:50;16.02;;;9.43;;
62268;SDS011;56517;51.634;5.566;2022-10-19T05:26:51;10.48;;;7.90;;
62268;SDS011;56517;51.634;5.566;2022-10-19T05:31:53;13.20;;;8.10;;
62268;SDS011;56517;51.634;5.566;2022-10-19T05:36:53;11.68;;;8.50;;
62268;SDS011;56517;51.634;5.566;2022-10-19T05:41:54;15.80;;;8.65;;
62268;SDS011;56517;51.634;5.566;2022-10-19T05:46:56;15.30;;;8.55;;
62268;SDS011;56517;51.634;5.566;2022-10-19T05:51:57;12.60;;;8.50;;
62268;SDS011;56517;51.634;5.566;2022-10-19T05:56:57;13.60;;;8.50;;
62268;SDS011;56517;51.634;5.566;2022-10-19T06:01:59;11.65;;;8.52;;
62268;SDS011;56517;51.634;5.566;2022-10-19T06:07:00;15.50;;;8.25;;
62268;SDS011;56517;51.634;5.566;2022-10-19T06:12:00;16.13;;;8.20;;
62268;SDS011;56517;51.634;5.566;2022-10-19T06:17:03;15.00;;;9.10;;
62268;SDS011;56517;51.634;5.566;2022-10-19T06:22:03;14.70;;;8.73;;
62268;SDS011;56517;51.634;5.566;2022-10-19T06:27:04;15.50;;;9.07;;
62268;SDS011;56517;51.634;5.566;2022-10-19T06:32:06;16.65;;;10.30;;
62268;SDS011;56517;51.634;5.566;2022-10-19T06:37:06;18.02;;;9.07;;
62268;SDS011;56517;51.634;5.566;2022-10-19T06:42:07;12.18;;;9.05;;
62268;SDS011;56517;51.634;5.566;2022-10-19T06:47:09;15.88;;;8.75;;
62268;SDS011;56517;51.634;5.566;2022-10-19T06:52:09;17.52;;;9.55;;
62268;SDS011;56517;51.634;5.566;2022-10-19T06:57:10;16.35;;;10.88;;
62268;SDS011;56517;51.634;5.566;2022-10-19T07:02:12;19.40;;;10.05;;
62268;SDS011;56517;51.634;5.566;2022-10-19T07:07:12;24.42;;;12.63;;
62268;SDS011;56517;51.634;5.566;2022-10-19T07:12:13;24.60;;;12.07;;
62268;SDS011;56517;51.634;5.566;2022-10-19T07:17:15;24.42;;;14.25;;
62268;SDS011;56517;51.634;5.566;2022-10-19T07:22:16;35.33;;;16.98;;
62268;SDS011;56517;51.634;5.566;2022-10-19T07:27:16;29.27;;;15.60;;
62268;SDS011;56517;51.634;5.566;2022-10-19T07:32:19;32.10;;;17.15;;
62268;SDS011;56517;51.634;5.566;2022-10-19T07:37:19;33.90;;;17.63;;
62268;SDS011;56517;51.634;5.566;2022-10-19T07:42:20;31.38;;;16.80;;
62268;SDS011;56517;51.634;5.566;2022-10-19T07:47:22;29.25;;;17.27;;
62268;SDS011;56517;51.634;5.566;2022-10-19T07:52:22;25.67;;;13.57;;
62268;SDS011;56517;51.634;5.566;2022-10-19T07:57:23;26.98;;;13.65;;
62268;SDS011;56517;51.634;5.566;2022-10-19T08:02:25;20.77;;;12.43;;
62268;SDS011;56517;51.634;5.566;2022-10-19T08:07:25;22.30;;;11.25;;
62268;SDS011;56517;51.634;5.566;2022-10-19T08:12:26;17.08;;;11.02;;
62268;SDS011;56517;51.634;5.566;2022-10-19T08:17:28;16.13;;;8.93;;
62268;SDS011;56517;51.634;5.566;2022-10-19T08:22:29;13.07;;;8.85;;
62268;SDS011;56517;51.634;5.566;2022-10-19T08:27:29;12.55;;;7.22;;
62268;SDS011;56517;51.634;5.566;2022-10-19T08:32:31;12.75;;;7.82;;
62268;SDS011;56517;51.634;5.566;2022-10-19T08:37:32;9.82;;;6.68;;
62268;SDS011;56517;51.634;5.566;2022-10-19T08:42:36;12.13;;;6.30;;
62268;SDS011;56517;51.634;5.566;2022-10-19T08:47:47;9.85;;;6.65;;
62268;SDS011;56517;51.634;5.566;2022-10-19T08:52:53;10.45;;;6.28;;
62268;SDS011;56517;51.634;5.566;2022-10-19T08:58:00;10.57;;;6.05;;
62268;SDS011;56517;51.634;5.566;2022-10-19T09:03:10;11.38;;;5.65;;
62268;SDS011;56517;51.634;5.566;2022-10-19T09:08:11;9.80;;;4.95;;
62268;SDS011;56517;51.634;5.566;2022-10-19T09:13:15;9.90;;;5.60;;
62268;SDS011;56517;51.634;5.566;2022-10-19T09:18:20;9.88;;;5.85;;
62268;SDS011;56517;51.634;5.566;2022-10-19T09:23:21;7.57;;;5.70;;
62268;SDS011;56517;51.634;5.566;2022-10-19T09:28:30;10.38;;;5.75;;
62268;SDS011;56517;51.634;5.566;2022-10-19T09:33:35;10.18;;;5.10;;
62268;SDS011;56517;51.634;5.566;2022-10-19T09:38:37;11.45;;;5.22;;
62268;SDS011;56517;51.634;5.566;2022-10-19T09:43:38;9.85;;;5.07;;
62268;SDS011;56517;51.634;5.566;2022-10-19T09:48:41;7.53;;;4.72;;
62268;SDS011;56517;51.634;5.566;2022-10-19T09:53:43;7.90;;;5.25;;
62268;SDS011;56517;51.634;5.566;2022-10-19T09:58:46;11.20;;;4.50;;
62268;SDS011;56517;51.634;5.566;2022-10-19T10:03:48;7.53;;;4.93;;
62268;SDS011;56517;51.634;5.566;2022-10-19T10:08:49;9.52;;;4.38;;
62268;SDS011;56517;51.634;5.566;2022-10-19T10:13:51;15.13;;;6.07;;
62268;SDS011;56517;51.634;5.566;2022-10-19T10:18:55;5.13;;;4.20;;
62268;SDS011;56517;51.634;5.566;2022-10-19T10:24:00;8.43;;;4.38;;
62268;SDS011;56517;51.634;5.566;2022-10-19T10:29:01;7.85;;;3.75;;
62268;SDS011;56517;51.634;5.566;2022-10-19T10:34:03;7.63;;;4.00;;
62268;SDS011;56517;51.634;5.566;2022-10-19T10:39:04;7.30;;;4.28;;
62268;SDS011;56517;51.634;5.566;2022-10-19T10:44:06;7.05;;;4.53;;
62268;SDS011;56517;51.634;5.566;2022-10-19T10:49:15;8.13;;;4.20;;
62268;SDS011;56517;51.634;5.566;2022-10-19T10:54:19;7.75;;;3.83;;
62268;SDS011;56517;51.634;5.566;2022-10-19T10:59:20;9.30;;;4.80;;
62268;SDS011;56517;51.634;5.566;2022-10-19T11:04:24;8.00;;;4.40;;
62268;SDS011;56517;51.634;5.566;2022-10-19T11:09:30;8.40;;;3.97;;
62268;SDS011;56517;51.634;5.566;2022-10-19T11:14:34;7.13;;;4.00;;
62268;SDS011;56517;51.634;5.566;2022-10-19T11:19:38;6.88;;;4.32;;
62268;SDS011;56517;51.634;5.566;2022-10-19T11:24:41;8.02;;;4.28;;
62268;SDS011;56517;51.634;5.566;2022-10-19T11:29:49;9.10;;;4.40;;
62268;SDS011;56517;51.634;5.566;2022-10-19T11:34:58;8.80;;;4.10;;
62268;SDS011;56517;51.634;5.566;2022-10-19T11:40:07;5.80;;;3.92;;
62268;SDS011;56517;51.634;5.566;2022-10-19T11:45:12;8.48;;;4.45;;
62268;SDS011;56517;51.634;5.566;2022-10-19T11:50:22;6.40;;;3.72;;
62268;SDS011;56517;51.634;5.566;2022-10-19T11:55:27;10.07;;;4.05;;
62268;SDS011;56517;51.634;5.566;2022-10-19T12:00:29;8.68;;;4.20;;
62268;SDS011;56517;51.634;5.566;2022-10-19T12:05:38;10.25;;;4.35;;
62268;SDS011;56517;51.634;5.566;2022-10-19T12:10:42;6.50;;;4.03;;
62268;SDS011;56517;51.634;5.566;2022-10-19T12:15:46;11.93;;;4.88;;
62268;SDS011;56517;51.634;5.566;2022-10-19T12:20:50;9.48;;;4.78;;
62268;SDS011;56517;51.634;5.566;2022-10-19T12:25:52;9.27;;;4.20;;
62268;SDS011;56517;51.634;5.566;2022-10-19T12:30:53;12.93;;;5.78;;
62268;SDS011;56517;51.634;5.566;2022-10-19T12:35:59;5.70;;;4.50;;
62268;SDS011;56517;51.634;5.566;2022-10-19T12:41:04;10.55;;;6.15;;
62268;SDS011;56517;51.634;5.566;2022-10-19T12:46:08;9.98;;;6.57;;
62268;SDS011;56517;51.634;5.566;2022-10-19T12:51:21;8.00;;;4.55;;
62268;SDS011;56517;51.634;5.566;2022-10-19T12:56:22;7.97;;;4.30;;
62268;SDS011;56517;51.634;5.566;2022-10-19T13:01:24;10.63;;;5.13;;
62268;SDS011;56517;51.634;5.566;2022-10-19T13:06:31;11.73;;;4.88;;
62268;SDS011;56517;51.634;5.566;2022-10-19T13:11:32;7.90;;;4.95;;
62268;SDS011;56517;51.634;5.566;2022-10-19T13:27:27;8.38;;;4.22;;
62268;SDS011;56517;51.634;5.566;2022-10-19T13:32:41;6.00;;;4.13;;
62268;SDS011;56517;51.634;5.566;2022-10-19T13:37:42;9.48;;;5.05;;
62268;SDS011;56517;51.634;5.566;2022-10-19T13:42:44;7.07;;;3.97;;
62268;SDS011;56517;51.634;5.566;2022-10-19T13:47:45;8.68;;;4.10;;
62268;SDS011;56517;51.634;5.566;2022-10-19T13:58:14;9.55;;;4.32;;
62268;SDS011;56517;51.634;5.566;2022-10-19T14:03:21;5.60;;;4.05;;
62268;SDS011;56517;51.634;5.566;2022-10-19T14:08:39;7.43;;;3.83;;
62268;SDS011;56517;51.634;5.566;2022-10-19T14:13:41;8.15;;;4.38;;
62268;SDS011;56517;51.634;5.566;2022-10-19T14:18:42;13.10;;;4.65;;
62268;SDS011;56517;51.634;5.566;2022-10-19T14:23:42;9.27;;;4.50;;
62268;SDS011;56517;51.634;5.566;2022-10-19T14:28:44;8.05;;;4.78;;
62268;SDS011;56517;51.634;5.566;2022-10-19T14:33:50;11.40;;;4.85;;
62268;SDS011;56517;51.634;5.566;2022-10-19T14:38:52;10.38;;;5.43;;
62268;SDS011;56517;51.634;5.566;2022-10-19T14:43:55;7.32;;;5.35;;
62268;SDS011;56517;51.634;5.566;2022-10-19T14:48:58;7.90;;;5.00;;
62268;SDS011;56517;51.634;5.566;2022-10-19T14:53:59;9.43;;;5.72;;
62268;SDS011;56517;51.634;5.566;2022-10-19T14:59:04;10.48;;;5.43;;
62268;SDS011;56517;51.634;5.566;2022-10-19T15:04:06;10.95;;;5.45;;
62268;SDS011;56517;51.634;5.566;2022-10-19T15:09:06;11.88;;;5.88;;
62268;SDS011;56517;51.634;5.566;2022-10-19T15:14:16;9.30;;;5.88;;
62268;SDS011;56517;51.634;5.566;2022-10-19T15:19:20;11.63;;;5.85;;
62268;SDS011;56517;51.634;5.566;2022-10-19T15:24:23;11.52;;;5.50;;
62268;SDS011;56517;51.634;5.566;2022-10-19T15:29:28;8.30;;;5.78;;
62268;SDS011;56517;51.634;5.566;2022-10-19T15:34:28;8.80;;;5.82;;
62268;SDS011;56517;51.634;5.566;2022-10-19T15:39:30;11.98;;;5.65;;
62268;SDS011;56517;51.634;5.566;2022-10-19T15:44:39;10.63;;;6.28;;
62268;SDS011;56517;51.634;5.566;2022-10-19T15:49:52;8.50;;;5.53;;
62268;SDS011;56517;51.634;5.566;2022-10-19T15:54:54;9.70;;;5.53;;
62268;SDS011;56517;51.634;5.566;2022-10-19T15:59:57;12.27;;;5.93;;
62268;SDS011;56517;51.634;5.566;2022-10-19T16:04:58;8.30;;;4.78;;
62268;SDS011;56517;51.634;5.566;2022-10-19T16:09:58;7.80;;;5.35;;
62268;SDS011;56517;51.634;5.566;2022-10-19T16:15:00;9.75;;;5.35;;
62268;SDS011;56517;51.634;5.566;2022-10-19T16:20:01;7.30;;;5.63;;
62268;SDS011;56517;51.634;5.566;2022-10-19T16:25:02;9.23;;;5.85;;
62268;SDS011;56517;51.634;5.566;2022-10-19T16:30:04;8.70;;;5.50;;
62268;SDS011;56517;51.634;5.566;2022-10-19T16:35:05;10.20;;;6.68;;
62268;SDS011;56517;51.634;5.566;2022-10-19T16:40:06;7.30;;;6.05;;
62268;SDS011;56517;51.634;5.566;2022-10-19T16:45:09;10.27;;;6.05;;
62268;SDS011;56517;51.634;5.566;2022-10-19T16:50:10;11.23;;;6.78;;
62268;SDS011;56517;51.634;5.566;2022-10-19T16:55:10;10.75;;;6.22;;
62268;SDS011;56517;51.634;5.566;2022-10-19T17:00:12;10.57;;;6.07;;
62268;SDS011;56517;51.634;5.566;2022-10-19T17:05:13;10.70;;;7.13;;
62268;SDS011;56517;51.634;5.566;2022-10-19T17:10:14;9.40;;;7.03;;
62268;SDS011;56517;51.634;5.566;2022-10-19T17:15:16;10.73;;;6.40;;
62268;SDS011;56517;51.634;5.566;2022-10-19T17:20:16;8.73;;;6.07;;
62268;SDS011;56517;51.634;5.566;2022-10-19T17:25:17;14.45;;;6.53;;
62268;SDS011;56517;51.634;5.566;2022-10-19T17:30:19;8.27;;;5.68;;
62268;SDS011;56517;51.634;5.566;2022-10-19T17:35:19;8.70;;;6.47;;
62268;SDS011;56517;51.634;5.566;2022-10-19T17:40:20;10.18;;;6.28;;
62268;SDS011;56517;51.634;5.566;2022-10-19T17:45:22;10.30;;;7.05;;
62268;SDS011;56517;51.634;5.566;2022-10-19T17:50:22;9.63;;;6.70;;
62268;SDS011;56517;51.634;5.566;2022-10-19T17:55:23;10.00;;;6.82;;
62268;SDS011;56517;51.634;5.566;2022-10-19T18:00:25;8.15;;;6.38;;
62268;SDS011;56517;51.634;5.566;2022-10-19T18:05:26;12.45;;;7.15;;
62268;SDS011;56517;51.634;5.566;2022-10-19T18:10:26;10.02;;;6.55;;
62268;SDS011;56517;51.634;5.566;2022-10-19T18:15:28;8.98;;;6.00;;
62268;SDS011;56517;51.634;5.566;2022-10-19T18:20:29;15.35;;;7.75;;
62268;SDS011;56517;51.634;5.566;2022-10-19T18:25:29;15.25;;;7.32;;
62268;SDS011;56517;51.634;5.566;2022-10-19T18:30:31;10.98;;;6.93;;
62268;SDS011;56517;51.634;5.566;2022-10-19T18:35:34;12.90;;;6.82;;
62268;SDS011;56517;51.634;5.566;2022-10-19T18:40:36;10.40;;;7.20;;
62268;SDS011;56517;51.634;5.566;2022-10-19T18:45:38;15.35;;;6.47;;
62268;SDS011;56517;51.634;5.566;2022-10-19T18:50:39;16.27;;;7.30;;
62268;SDS011;56517;51.634;5.566;2022-10-19T18:55:40;10.82;;;6.72;;
62268;SDS011;56517;51.634;5.566;2022-10-19T19:00:41;11.50;;;6.38;;
62268;SDS011;56517;51.634;5.566;2022-10-19T19:05:42;12.65;;;7.40;;
62268;SDS011;56517;51.634;5.566;2022-10-19T19:10:43;10.23;;;7.22;;
62268;SDS011;56517;51.634;5.566;2022-10-19T19:15:44;13.15;;;6.63;;
62268;SDS011;56517;51.634;5.566;2022-10-19T19:20:54;15.10;;;6.75;;
62268;SDS011;56517;51.634;5.566;2022-10-19T19:25:55;9.07;;;6.97;;
62268;SDS011;56517;51.634;5.566;2022-10-19T19:30:57;10.88;;;6.82;;
62268;SDS011;56517;51.634;5.566;2022-10-19T19:35:58;16.38;;;7.97;;
62268;SDS011;56517;51.634;5.566;2022-10-19T19:40:58;11.82;;;7.03;;
62268;SDS011;56517;51.634;5.566;2022-10-19T19:46:04;9.25;;;6.75;;
62268;SDS011;56517;51.634;5.566;2022-10-19T19:51:06;13.38;;;6.53;;
62268;SDS011;56517;51.634;5.566;2022-10-19T19:56:07;11.15;;;6.53;;
62268;SDS011;56517;51.634;5.566;2022-10-19T20:01:10;12.20;;;7.43;;
62268;SDS011;56517;51.634;5.566;2022-10-19T20:06:11;11.68;;;7.35;;
62268;SDS011;56517;51.634;5.566;2022-10-19T20:11:12;8.57;;;6.78;;
62268;SDS011;56517;51.634;5.566;2022-10-19T20:16:15;12.13;;;6.80;;
62268;SDS011;56517;51.634;5.566;2022-10-19T20:21:16;15.15;;;8.05;;
62268;SDS011;56517;51.634;5.566;2022-10-19T20:26:18;12.18;;;7.53;;
62268;SDS011;56517;51.634;5.566;2022-10-19T20:31:20;15.05;;;7.47;;
62268;SDS011;56517;51.634;5.566;2022-10-19T20:36:22;8.57;;;6.53;;
62268;SDS011;56517;51.634;5.566;2022-10-19T20:41:23;12.02;;;7.55;;
62268;SDS011;56517;51.634;5.566;2022-10-19T20:46:28;15.05;;;7.90;;
62268;SDS011;56517;51.634;5.566;2022-10-19T20:51:30;14.13;;;7.45;;
62268;SDS011;56517;51.634;5.566;2022-10-19T20:56:31;9.60;;;7.25;;
62268;SDS011;56517;51.634;5.566;2022-10-19T21:01:34;15.93;;;8.13;;
62268;SDS011;56517;51.634;5.566;2022-10-19T21:06:36;23.02;;;9.73;;
62268;SDS011;56517;51.634;5.566;2022-10-19T21:11:38;15.00;;;7.70;;
62268;SDS011;56517;51.634;5.566;2022-10-19T21:16:40;11.88;;;7.25;;
62268;SDS011;56517;51.634;5.566;2022-10-19T21:21:41;9.23;;;7.95;;
62268;SDS011;56517;51.634;5.566;2022-10-19T21:26:42;16.02;;;8.15;;
62268;SDS011;56517;51.634;5.566;2022-10-19T21:31:46;14.82;;;8.50;;
62268;SDS011;56517;51.634;5.566;2022-10-19T21:36:47;11.40;;;8.30;;
62268;SDS011;56517;51.634;5.566;2022-10-19T21:41:47;10.88;;;7.57;;
62268;SDS011;56517;51.634;5.566;2022-10-19T21:46:49;13.20;;;8.20;;
62268;SDS011;56517;51.634;5.566;2022-10-19T21:51:50;11.48;;;7.60;;
62268;SDS011;56517;51.634;5.566;2022-10-19T21:56:51;11.75;;;7.97;;
62268;SDS011;56517;51.634;5.566;2022-10-19T22:01:53;15.93;;;8.93;;
62268;SDS011;56517;51.634;5.566;2022-10-19T22:06:54;15.43;;;8.38;;
62268;SDS011;56517;51.634;5.566;2022-10-19T22:11:54;14.05;;;8.88;;
62268;SDS011;56517;51.634;5.566;2022-10-19T22:16:56;12.82;;;8.70;;
62268;SDS011;56517;51.634;5.566;2022-10-19T22:21:57;13.60;;;9.23;;
62268;SDS011;56517;51.634;5.566;2022-10-19T22:26:57;10.82;;;8.32;;
62268;SDS011;56517;51.634;5.566;2022-10-19T22:31:59;16.27;;;8.90;;
62268;SDS011;56517;51.634;5.566;2022-10-19T22:37:00;18.13;;;8.77;;
62268;SDS011;56517;51.634;5.566;2022-10-19T22:42:03;17.23;;;8.93;;
62268;SDS011;56517;51.634;5.566;2022-10-19T22:47:05;17.33;;;9.27;;
62268;SDS011;56517;51.634;5.566;2022-10-19T22:52:06;13.43;;;8.75;;
62268;SDS011;56517;51.634;5.566;2022-10-19T22:57:07;13.98;;;9.68;;
62268;SDS011;56517;51.634;5.566;2022-10-19T23:02:09;16.10;;;8.43;;
62268;SDS011;56517;51.634;5.566;2022-10-19T23:07:09;12.02;;;9.25;;
62268;SDS011;56517;51.634;5.566;2022-10-19T23:12:10;14.75;;;9.55;;
62268;SDS011;56517;51.634;5.566;2022-10-19T23:17:12;14.18;;;9.30;;
62268;SDS011;56517;51.634;5.566;2022-10-19T23:22:12;14.77;;;9.82;;
62268;SDS011;56517;51.634;5.566;2022-10-19T23:27:13;15.30;;;8.98;;
62268;SDS011;56517;51.634;5.566;2022-10-19T23:32:15;15.00;;;9.48;;
62268;SDS011;56517;51.634;5.566;2022-10-19T23:37:15;14.82;;;8.95;;
62268;SDS011;56517;51.634;5.566;2022-10-19T23:42:16;19.15;;;12.27;;
62268;SDS011;56517;51.634;5.566;2022-10-19T23:47:18;14.27;;;9.57;;
62268;SDS011;56517;51.634;5.566;2022-10-19T23:52:18;14.98;;;9.63;;
62268;SDS011;56517;51.634;5.566;2022-10-19T23:57:19;15.65;;;9.55;;
